ΕΜΥ, Εθνική Μετεωρολογική Υπηρεσία - Δελτία Καιρού, Προγνώσεις

ΑΕΡΟΝΑΥΤΙΛΙΑ

GREEK AIRPORTS CODES

TAF LGTG 200200Z 2003/2012 VRB03KT 9999 FEW025=

EUROPEAN AIRPORTS CODES

LCLK 200200Z 29003KT 250V310 CAVOK 23/20 Q1003 NOSIG=